sensor_id;sensor_type;location;lat;lon;timestamp;pressure;altitude;pressure_sealevel;temperature;humidity
28448;BME280;15675;52.870;-1.416;2024-03-02T00:00:19;98531.72;;;6.89;90.40
28448;BME280;15675;52.870;-1.416;2024-03-02T00:02:47;98524.22;;;6.73;90.35
28448;BME280;15675;52.870;-1.416;2024-03-02T00:05:21;98521.09;;;6.54;91.25
28448;BME280;15675;52.870;-1.416;2024-03-02T00:07:58;98521.56;;;6.20;94.16
28448;BME280;15675;52.870;-1.416;2024-03-02T00:10:25;98520.38;;;5.75;97.90
28448;BME280;15675;52.870;-1.416;2024-03-02T00:12:55;98524.66;;;5.77;100.00
28448;BME280;15675;52.870;-1.416;2024-03-02T00:15:34;98523.81;;;5.74;100.00
28448;BME280;15675;52.870;-1.416;2024-03-02T00:18:02;98529.31;;;5.40;100.00
28448;BME280;15675;52.870;-1.416;2024-03-02T00:20:29;98535.22;;;5.49;100.00
28448;BME280;15675;52.870;-1.416;2024-03-02T00:23:09;98531.06;;;5.38;100.00
28448;BME280;15675;52.870;-1.416;2024-03-02T00:25:44;98523.69;;;5.84;100.00
28448;BME280;15675;52.870;-1.416;2024-03-02T00:28:21;98519.34;;;5.90;100.00
28448;BME280;15675;52.870;-1.416;2024-03-02T00:33:13;98532.50;;;5.65;100.00
28448;BME280;15675;52.870;-1.416;2024-03-02T00:35:38;98528.84;;;5.81;100.00
28448;BME280;15675;52.870;-1.416;2024-03-02T00:38:05;98523.00;;;5.72;100.00
28448;BME280;15675;52.870;-1.416;2024-03-02T00:40:31;98535.88;;;5.72;100.00
28448;BME280;15675;52.870;-1.416;2024-03-02T00:42:57;98528.75;;;5.92;100.00
28448;BME280;15675;52.870;-1.416;2024-03-02T00:45:23;98535.88;;;5.67;100.00
28448;BME280;15675;52.870;-1.416;2024-03-02T00:47:50;98533.25;;;5.75;100.00
28448;BME280;15675;52.870;-1.416;2024-03-02T00:50:16;98531.63;;;5.67;100.00
28448;BME280;15675;52.870;-1.416;2024-03-02T00:52:43;98530.75;;;5.67;100.00
28448;BME280;15675;52.870;-1.416;2024-03-02T00:55:09;98527.25;;;5.73;100.00
28448;BME280;15675;52.870;-1.416;2024-03-02T00:57:34;98522.84;;;5.82;100.00
28448;BME280;15675;52.870;-1.416;2024-03-02T01:00:00;98521.03;;;5.92;100.00
28448;BME280;15675;52.870;-1.416;2024-03-02T01:02:26;98514.53;;;5.57;100.00
28448;BME280;15675;52.870;-1.416;2024-03-02T01:04:52;98514.63;;;5.49;100.00
28448;BME280;15675;52.870;-1.416;2024-03-02T01:07:17;98512.69;;;5.70;100.00
28448;BME280;15675;52.870;-1.416;2024-03-02T01:09:43;98510.16;;;5.67;100.00
28448;BME280;15675;52.870;-1.416;2024-03-02T01:12:08;98521.03;;;5.91;100.00
28448;BME280;15675;52.870;-1.416;2024-03-02T01:14:34;98517.53;;;5.96;100.00
28448;BME280;15675;52.870;-1.416;2024-03-02T01:17:00;98515.00;;;5.93;100.00
28448;BME280;15675;52.870;-1.416;2024-03-02T01:19:28;98512.41;;;5.98;100.00
28448;BME280;15675;52.870;-1.416;2024-03-02T01:21:54;98509.84;;;5.93;100.00
28448;BME280;15675;52.870;-1.416;2024-03-02T01:24:20;98514.66;;;6.21;100.00
28448;BME280;15675;52.870;-1.416;2024-03-02T01:26:45;98511.50;;;6.02;100.00
28448;BME280;15675;52.870;-1.416;2024-03-02T01:29:10;98506.38;;;6.00;100.00
28448;BME280;15675;52.870;-1.416;2024-03-02T01:31:36;98507.09;;;6.10;100.00
28448;BME280;15675;52.870;-1.416;2024-03-02T01:34:01;98516.28;;;6.28;100.00
28448;BME280;15675;52.870;-1.416;2024-03-02T01:36:27;98505.47;;;6.03;100.00
28448;BME280;15675;52.870;-1.416;2024-03-02T01:38:52;98503.41;;;6.28;100.00
28448;BME280;15675;52.870;-1.416;2024-03-02T01:41:18;98503.63;;;6.11;100.00
28448;BME280;15675;52.870;-1.416;2024-03-02T01:43:44;98508.81;;;6.10;100.00
28448;BME280;15675;52.870;-1.416;2024-03-02T01:46:10;98497.53;;;6.20;100.00
28448;BME280;15675;52.870;-1.416;2024-03-02T01:48:35;98505.28;;;6.15;100.00
28448;BME280;15675;52.870;-1.416;2024-03-02T01:51:01;98505.28;;;6.15;100.00
28448;BME280;15675;52.870;-1.416;2024-03-02T01:53:26;98506.38;;;6.00;100.00
28448;BME280;15675;52.870;-1.416;2024-03-02T01:55:53;98511.78;;;5.77;100.00
28448;BME280;15675;52.870;-1.416;2024-03-02T01:58:18;98504.19;;;5.65;100.00
28448;BME280;15675;52.870;-1.416;2024-03-02T02:00:44;98499.09;;;5.57;100.00
28448;BME280;15675;52.870;-1.416;2024-03-02T02:03:10;98496.53;;;5.59;100.00
28448;BME280;15675;52.870;-1.416;2024-03-02T02:05:36;98498.91;;;5.77;100.00
28448;BME280;15675;52.870;-1.416;2024-03-02T02:08:01;98495.38;;;5.81;100.00
28448;BME280;15675;52.870;-1.416;2024-03-02T02:10:27;98489.03;;;5.40;100.00
28448;BME280;15675;52.870;-1.416;2024-03-02T02:12:53;98492.75;;;5.08;100.00
28448;BME280;15675;52.870;-1.416;2024-03-02T02:15:28;98489.00;;;5.43;100.00
28448;BME280;15675;52.870;-1.416;2024-03-02T02:17:55;98491.88;;;5.12;100.00
28448;BME280;15675;52.870;-1.416;2024-03-02T02:20:21;98485.84;;;5.15;100.00
28448;BME280;15675;52.870;-1.416;2024-03-02T02:23:00;98484.06;;;5.18;100.00
28448;BME280;15675;52.870;-1.416;2024-03-02T02:25:27;98468.72;;;5.12;100.00
28448;BME280;15675;52.870;-1.416;2024-03-02T02:27:53;98460.81;;;5.29;100.00
28448;BME280;15675;52.870;-1.416;2024-03-02T02:30:20;98467.63;;;5.35;100.00
28448;BME280;15675;52.870;-1.416;2024-03-02T02:32:46;98471.97;;;5.28;100.00
28448;BME280;15675;52.870;-1.416;2024-03-02T02:35:11;98473.84;;;5.12;100.00
28448;BME280;15675;52.870;-1.416;2024-03-02T02:37:38;98476.25;;;5.29;100.00
28448;BME280;15675;52.870;-1.416;2024-03-02T02:40:04;98477.13;;;5.28;100.00
28448;BME280;15675;52.870;-1.416;2024-03-02T02:42:30;98477.44;;;4.94;100.00
28448;BME280;15675;52.870;-1.416;2024-03-02T02:44:56;98468.56;;;5.28;100.00
28448;BME280;15675;52.870;-1.416;2024-03-02T02:47:21;98469.47;;;5.24;100.00
28448;BME280;15675;52.870;-1.416;2024-03-02T02:49:47;98466.56;;;5.55;100.00
28448;BME280;15675;52.870;-1.416;2024-03-02T02:52:12;98464.09;;;5.44;100.00
28448;BME280;15675;52.870;-1.416;2024-03-02T02:54:38;98458.06;;;5.46;100.00
28448;BME280;15675;52.870;-1.416;2024-03-02T02:57:03;98451.06;;;5.58;100.00
28448;BME280;15675;52.870;-1.416;2024-03-02T02:59:29;98458.78;;;5.58;100.00
28448;BME280;15675;52.870;-1.416;2024-03-02T03:01:54;98458.06;;;5.48;100.00
28448;BME280;15675;52.870;-1.416;2024-03-02T03:04:20;98454.72;;;5.38;100.00
28448;BME280;15675;52.870;-1.416;2024-03-02T03:06:45;98457.16;;;5.50;100.00
28448;BME280;15675;52.870;-1.416;2024-03-02T03:09:11;98447.03;;;5.35;100.00
28448;BME280;15675;52.870;-1.416;2024-03-02T03:11:37;98451.44;;;5.24;100.00
28448;BME280;15675;52.870;-1.416;2024-03-02T03:14:02;98448.69;;;5.41;100.00
28448;BME280;15675;52.870;-1.416;2024-03-02T03:16:28;98447.78;;;5.46;100.00
28448;BME280;15675;52.870;-1.416;2024-03-02T03:18:53;98448.81;;;5.28;100.00
28448;BME280;15675;52.870;-1.416;2024-03-02T03:21:19;98449.63;;;5.35;100.00
28448;BME280;15675;52.870;-1.416;2024-03-02T03:23:44;98445.19;;;5.46;100.00
28448;BME280;15675;52.870;-1.416;2024-03-02T03:26:10;98449.50;;;5.46;100.00
28448;BME280;15675;52.870;-1.416;2024-03-02T03:28:36;98458.38;;;5.15;100.00
28448;BME280;15675;52.870;-1.416;2024-03-02T03:31:01;98442.81;;;5.29;100.00
28448;BME280;15675;52.870;-1.416;2024-03-02T03:33:27;98442.56;;;5.51;100.00
28448;BME280;15675;52.870;-1.416;2024-03-02T03:35:53;98438.44;;;5.39;100.00
28448;BME280;15675;52.870;-1.416;2024-03-02T03:38:18;98440.13;;;5.39;100.00
28448;BME280;15675;52.870;-1.416;2024-03-02T03:40:44;98446.97;;;5.40;100.00
28448;BME280;15675;52.870;-1.416;2024-03-02T03:43:10;98445.63;;;5.06;100.00
28448;BME280;15675;52.870;-1.416;2024-03-02T03:45:36;98438.63;;;5.21;100.00
28448;BME280;15675;52.870;-1.416;2024-03-02T03:48:02;98440.28;;;5.26;100.00
28448;BME280;15675;52.870;-1.416;2024-03-02T03:50:28;98440.91;;;5.47;100.00
28448;BME280;15675;52.870;-1.416;2024-03-02T03:52:53;98436.78;;;5.32;100.00
28448;BME280;15675;52.870;-1.416;2024-03-02T03:55:19;98443.31;;;5.61;100.00
28448;BME280;15675;52.870;-1.416;2024-03-02T03:57:44;98435.00;;;5.40;100.00
28448;BME280;15675;52.870;-1.416;2024-03-02T04:00:10;98430.53;;;5.51;100.00
28448;BME280;15675;52.870;-1.416;2024-03-02T04:02:36;98431.41;;;5.52;100.00
28448;BME280;15675;52.870;-1.416;2024-03-02T04:05:01;98433.84;;;5.61;100.00
28448;BME280;15675;52.870;-1.416;2024-03-02T04:07:30;98422.03;;;5.48;100.00
28448;BME280;15675;52.870;-1.416;2024-03-02T04:09:55;98439.03;;;5.60;100.00
28448;BME280;15675;52.870;-1.416;2024-03-02T04:12:21;98435.06;;;5.32;100.00
28448;BME280;15675;52.870;-1.416;2024-03-02T04:14:47;98424.03;;;5.21;100.00
28448;BME280;15675;52.870;-1.416;2024-03-02T04:17:12;98431.78;;;5.18;100.00
28448;BME280;15675;52.870;-1.416;2024-03-02T04:19:38;98425.16;;;5.72;100.00
28448;BME280;15675;52.870;-1.416;2024-03-02T04:22:04;98425.63;;;5.31;100.00
28448;BME280;15675;52.870;-1.416;2024-03-02T04:24:29;98417.88;;;5.36;100.00
28448;BME280;15675;52.870;-1.416;2024-03-02T04:26:55;98414.72;;;5.12;100.00
28448;BME280;15675;52.870;-1.416;2024-03-02T04:29:20;98412.66;;;4.58;100.00
28448;BME280;15675;52.870;-1.416;2024-03-02T04:31:46;98420.19;;;4.78;100.00
28448;BME280;15675;52.870;-1.416;2024-03-02T04:34:12;98425.84;;;5.11;100.00
28448;BME280;15675;52.870;-1.416;2024-03-02T04:36:37;98432.06;;;4.89;100.00
28448;BME280;15675;52.870;-1.416;2024-03-02T04:39:03;98430.44;;;4.81;100.00
28448;BME280;15675;52.870;-1.416;2024-03-02T04:41:28;98429.31;;;5.10;100.00
28448;BME280;15675;52.870;-1.416;2024-03-02T04:43:54;98436.09;;;5.14;100.00
28448;BME280;15675;52.870;-1.416;2024-03-02T04:46:19;98433.44;;;5.24;100.00
28448;BME280;15675;52.870;-1.416;2024-03-02T04:48:44;98429.16;;;5.23;100.00
28448;BME280;15675;52.870;-1.416;2024-03-02T04:51:10;98440.69;;;4.88;100.00
28448;BME280;15675;52.870;-1.416;2024-03-02T04:53:36;98432.63;;;5.20;100.00
28448;BME280;15675;52.870;-1.416;2024-03-02T04:56:02;98435.97;;;5.27;100.00
28448;BME280;15675;52.870;-1.416;2024-03-02T04:58:45;98429.31;;;5.07;100.00
28448;BME280;15675;52.870;-1.416;2024-03-02T05:01:11;98438.94;;;4.90;100.00
28448;BME280;15675;52.870;-1.416;2024-03-02T05:03:36;98441.19;;;5.21;100.00
28448;BME280;15675;52.870;-1.416;2024-03-02T05:06:02;98442.97;;;5.15;100.00
28448;BME280;15675;52.870;-1.416;2024-03-02T05:08:28;98441.75;;;5.49;100.00
28448;BME280;15675;52.870;-1.416;2024-03-02T05:10:53;98438.56;;;5.27;100.00
28448;BME280;15675;52.870;-1.416;2024-03-02T05:13:19;98441.22;;;5.19;100.00
28448;BME280;15675;52.870;-1.416;2024-03-02T05:15:46;98437.66;;;5.31;100.00
28448;BME280;15675;52.870;-1.416;2024-03-02T05:18:12;98438.59;;;5.24;100.00
28448;BME280;15675;52.870;-1.416;2024-03-02T05:20:37;98439.78;;;4.92;100.00
28448;BME280;15675;52.870;-1.416;2024-03-02T05:23:03;98433.84;;;4.83;100.00
28448;BME280;15675;52.870;-1.416;2024-03-02T05:25:28;98447.75;;;4.61;100.00
28448;BME280;15675;52.870;-1.416;2024-03-02T05:27:54;98442.34;;;4.92;100.00
28448;BME280;15675;52.870;-1.416;2024-03-02T05:30:19;98444.03;;;4.93;100.00
28448;BME280;15675;52.870;-1.416;2024-03-02T05:32:45;98442.44;;;4.82;100.00
28448;BME280;15675;52.870;-1.416;2024-03-02T05:35:10;98440.41;;;5.14;100.00
28448;BME280;15675;52.870;-1.416;2024-03-02T05:37:38;98437.06;;;5.04;100.00
28448;BME280;15675;52.870;-1.416;2024-03-02T05:40:05;98442.56;;;4.65;100.00
28448;BME280;15675;52.870;-1.416;2024-03-02T05:42:31;98444.31;;;4.65;100.00
28448;BME280;15675;52.870;-1.416;2024-03-02T05:44:56;98442.59;;;4.62;100.00
28448;BME280;15675;52.870;-1.416;2024-03-02T05:47:21;98449.53;;;4.51;100.00
28448;BME280;15675;52.870;-1.416;2024-03-02T05:49:47;98446.16;;;4.46;100.00
28448;BME280;15675;52.870;-1.416;2024-03-02T05:52:12;98446.16;;;4.43;100.00
28448;BME280;15675;52.870;-1.416;2024-03-02T05:54:38;98443.44;;;4.68;100.00
28448;BME280;15675;52.870;-1.416;2024-03-02T05:57:04;98445.81;;;4.89;100.00
28448;BME280;15675;52.870;-1.416;2024-03-02T05:59:42;98437.44;;;4.65;100.00
28448;BME280;15675;52.870;-1.416;2024-03-02T06:02:09;98440.00;;;4.65;100.00
28448;BME280;15675;52.870;-1.416;2024-03-02T06:04:34;98438.44;;;4.51;100.00
28448;BME280;15675;52.870;-1.416;2024-03-02T06:07:00;98436.63;;;4.57;100.00
28448;BME280;15675;52.870;-1.416;2024-03-02T06:09:25;98434.97;;;4.52;100.00
28448;BME280;15675;52.870;-1.416;2024-03-02T06:11:51;98446.09;;;4.54;100.00
28448;BME280;15675;52.870;-1.416;2024-03-02T06:14:17;98439.28;;;4.49;100.00
28448;BME280;15675;52.870;-1.416;2024-03-02T06:16:42;98443.63;;;4.41;100.00
28448;BME280;15675;52.870;-1.416;2024-03-02T06:19:08;98438.19;;;4.78;100.00
28448;BME280;15675;52.870;-1.416;2024-03-02T06:21:33;98439.31;;;4.46;100.00
28448;BME280;15675;52.870;-1.416;2024-03-02T06:23:59;98438.59;;;4.26;100.00
28448;BME280;15675;52.870;-1.416;2024-03-02T06:26:25;98435.19;;;4.22;100.00
28448;BME280;15675;52.870;-1.416;2024-03-02T06:28:50;98438.31;;;4.63;100.00
28448;BME280;15675;52.870;-1.416;2024-03-02T06:31:16;98436.59;;;4.65;100.00
28448;BME280;15675;52.870;-1.416;2024-03-02T06:33:41;98427.13;;;4.69;100.00
28448;BME280;15675;52.870;-1.416;2024-03-02T06:36:07;98429.72;;;4.67;100.00
28448;BME280;15675;52.870;-1.416;2024-03-02T06:38:37;98433.25;;;4.55;100.00
28448;BME280;15675;52.870;-1.416;2024-03-02T06:41:02;98437.38;;;4.73;100.00
28448;BME280;15675;52.870;-1.416;2024-03-02T06:43:28;98426.19;;;4.79;100.00
28448;BME280;15675;52.870;-1.416;2024-03-02T06:45:53;98426.34;;;4.59;100.00
28448;BME280;15675;52.870;-1.416;2024-03-02T06:48:19;98425.34;;;4.77;100.00
28448;BME280;15675;52.870;-1.416;2024-03-02T06:50:49;98426.25;;;4.71;100.00
28448;BME280;15675;52.870;-1.416;2024-03-02T06:53:16;98423.69;;;4.70;100.00
28448;BME280;15675;52.870;-1.416;2024-03-02T06:55:45;98436.59;;;4.65;100.00
28448;BME280;15675;52.870;-1.416;2024-03-02T06:58:14;98430.66;;;4.55;100.00
28448;BME280;15675;52.870;-1.416;2024-03-02T07:00:44;98432.06;;;4.90;100.00
28448;BME280;15675;52.870;-1.416;2024-03-02T07:03:09;98430.47;;;4.78;100.00
28448;BME280;15675;52.870;-1.416;2024-03-02T07:05:35;98428.91;;;4.63;100.00
28448;BME280;15675;52.870;-1.416;2024-03-02T07:08:01;98434.56;;;4.98;100.00
28448;BME280;15675;52.870;-1.416;2024-03-02T07:10:27;98430.22;;;5.01;100.00
28448;BME280;15675;52.870;-1.416;2024-03-02T07:12:53;98417.69;;;4.71;100.00
28448;BME280;15675;52.870;-1.416;2024-03-02T07:15:18;98409.06;;;4.76;100.00
28448;BME280;15675;52.870;-1.416;2024-03-02T07:17:55;98423.78;;;4.62;100.00
28448;BME280;15675;52.870;-1.416;2024-03-02T07:20:21;98434.84;;;4.65;100.00
28448;BME280;15675;52.870;-1.416;2024-03-02T07:22:47;98422.25;;;4.39;100.00
28448;BME280;15675;52.870;-1.416;2024-03-02T07:25:12;98415.19;;;4.61;100.00
28448;BME280;15675;52.870;-1.416;2024-03-02T07:27:38;98413.53;;;4.54;100.00
28448;BME280;15675;52.870;-1.416;2024-03-02T07:30:05;98409.50;;;4.25;100.00
28448;BME280;15675;52.870;-1.416;2024-03-02T07:32:30;98411.84;;;4.50;100.00
28448;BME280;15675;52.870;-1.416;2024-03-02T07:34:56;98413.75;;;4.29;100.00
28448;BME280;15675;52.870;-1.416;2024-03-02T07:37:23;98410.25;;;4.38;100.00
28448;BME280;15675;52.870;-1.416;2024-03-02T07:39:48;98405.78;;;4.59;100.00
28448;BME280;15675;52.870;-1.416;2024-03-02T07:42:14;98407.41;;;4.72;100.00
28448;BME280;15675;52.870;-1.416;2024-03-02T07:44:40;98407.09;;;5.00;100.00
28448;BME280;15675;52.870;-1.416;2024-03-02T07:47:06;98406.28;;;4.99;100.00
28448;BME280;15675;52.870;-1.416;2024-03-02T07:49:31;98402.75;;;5.07;100.00
28448;BME280;15675;52.870;-1.416;2024-03-02T07:51:57;98397.88;;;4.83;100.00
28448;BME280;15675;52.870;-1.416;2024-03-02T07:54:22;98400.31;;;4.93;100.00
28448;BME280;15675;52.870;-1.416;2024-03-02T07:56:48;98399.75;;;4.63;100.00
28448;BME280;15675;52.870;-1.416;2024-03-02T07:59:14;98401.50;;;4.62;100.00
28448;BME280;15675;52.870;-1.416;2024-03-02T08:01:39;98402.88;;;4.94;100.00
28448;BME280;15675;52.870;-1.416;2024-03-02T08:04:05;98399.81;;;4.57;100.00
28448;BME280;15675;52.870;-1.416;2024-03-02T08:06:31;98400.50;;;4.79;100.00
28448;BME280;15675;52.870;-1.416;2024-03-02T08:08:58;98400.34;;;4.91;100.00
28448;BME280;15675;52.870;-1.416;2024-03-02T08:11:24;98406.19;;;5.06;100.00
28448;BME280;15675;52.870;-1.416;2024-03-02T08:13:49;98400.22;;;5.05;100.00
28448;BME280;15675;52.870;-1.416;2024-03-02T08:16:16;98400.47;;;4.80;100.00
28448;BME280;15675;52.870;-1.416;2024-03-02T08:18:42;98403.75;;;4.95;100.00
28448;BME280;15675;52.870;-1.416;2024-03-02T08:21:07;98403.97;;;4.70;100.00
28448;BME280;15675;52.870;-1.416;2024-03-02T08:23:34;98399.59;;;4.80;100.00
28448;BME280;15675;52.870;-1.416;2024-03-02T08:26:00;98394.22;;;5.05;100.00
28448;BME280;15675;52.870;-1.416;2024-03-02T08:28:25;98396.19;;;4.79;100.00
28448;BME280;15675;52.870;-1.416;2024-03-02T08:30:51;98393.50;;;4.89;100.00
28448;BME280;15675;52.870;-1.416;2024-03-02T08:33:16;98401.19;;;4.95;100.00
28448;BME280;15675;52.870;-1.416;2024-03-02T08:35:42;98396.06;;;4.90;100.00
28448;BME280;15675;52.870;-1.416;2024-03-02T08:38:07;98394.47;;;4.80;100.00
28448;BME280;15675;52.870;-1.416;2024-03-02T08:40:33;98397.00;;;4.84;100.00
28448;BME280;15675;52.870;-1.416;2024-03-02T08:43:00;98391.69;;;4.98;100.00
28448;BME280;15675;52.870;-1.416;2024-03-02T08:45:26;98393.50;;;4.89;100.00
28448;BME280;15675;52.870;-1.416;2024-03-02T08:47:51;98393.44;;;4.98;100.00
28448;BME280;15675;52.870;-1.416;2024-03-02T08:50:17;98395.22;;;4.91;100.00
28448;BME280;15675;52.870;-1.416;2024-03-02T08:52:42;98391.63;;;5.06;100.00
28448;BME280;15675;52.870;-1.416;2024-03-02T08:55:08;98394.38;;;5.64;100.00
28448;BME280;15675;52.870;-1.416;2024-03-02T08:57:34;98391.22;;;5.42;100.00
28448;BME280;15675;52.870;-1.416;2024-03-02T09:00:00;98387.19;;;5.21;100.00
28448;BME280;15675;52.870;-1.416;2024-03-02T09:02:26;98384.53;;;5.27;100.00
28448;BME280;15675;52.870;-1.416;2024-03-02T09:04:52;98388.03;;;5.19;100.00
28448;BME280;15675;52.870;-1.416;2024-03-02T09:07:18;98382.09;;;5.14;100.00
28448;BME280;15675;52.870;-1.416;2024-03-02T09:09:43;98389.59;;;5.36;100.00
28448;BME280;15675;52.870;-1.416;2024-03-02T09:12:09;98388.53;;;5.51;100.00
28448;BME280;15675;52.870;-1.416;2024-03-02T09:14:36;98385.63;;;5.74;100.00
28448;BME280;15675;52.870;-1.416;2024-03-02T09:17:02;98378.75;;;5.76;100.00
28448;BME280;15675;52.870;-1.416;2024-03-02T09:19:29;98377.22;;;5.64;100.00
28448;BME280;15675;52.870;-1.416;2024-03-02T09:21:55;98373.97;;;5.48;100.00
28448;BME280;15675;52.870;-1.416;2024-03-02T09:24:21;98383.78;;;5.85;100.00
28448;BME280;15675;52.870;-1.416;2024-03-02T09:26:48;98372.78;;;5.74;100.00
28448;BME280;15675;52.870;-1.416;2024-03-02T09:29:13;98385.44;;;5.88;100.00
28448;BME280;15675;52.870;-1.416;2024-03-02T09:31:40;98382.34;;;5.63;100.00
28448;BME280;15675;52.870;-1.416;2024-03-02T09:34:06;98388.88;;;5.87;100.00
28448;BME280;15675;52.870;-1.416;2024-03-02T09:36:32;98386.19;;;5.99;100.00
28448;BME280;15675;52.870;-1.416;2024-03-02T09:38:58;98385.19;;;6.08;100.00
28448;BME280;15675;52.870;-1.416;2024-03-02T09:41:24;98373.75;;;6.26;100.00
28448;BME280;15675;52.870;-1.416;2024-03-02T09:43:50;98372.38;;;6.05;100.00
28448;BME280;15675;52.870;-1.416;2024-03-02T09:46:16;98370.41;;;6.19;100.00
28448;BME280;15675;52.870;-1.416;2024-03-02T09:48:43;98376.38;;;6.25;100.00
28448;BME280;15675;52.870;-1.416;2024-03-02T09:51:10;98366.78;;;6.31;100.00
28448;BME280;15675;52.870;-1.416;2024-03-02T09:53:36;98359.97;;;6.30;100.00
28448;BME280;15675;52.870;-1.416;2024-03-02T09:56:02;98359.03;;;6.34;100.00
28448;BME280;15675;52.870;-1.416;2024-03-02T09:58:28;98359.63;;;6.50;100.00
28448;BME280;15675;52.870;-1.416;2024-03-02T10:00:53;98352.44;;;6.16;100.00
28448;BME280;15675;52.870;-1.416;2024-03-02T10:03:19;98363.22;;;6.42;100.00
28448;BME280;15675;52.870;-1.416;2024-03-02T10:05:46;98361.94;;;6.13;100.00
28448;BME280;15675;52.870;-1.416;2024-03-02T10:08:11;98361.63;;;6.33;100.00
28448;BME280;15675;52.870;-1.416;2024-03-02T10:10:41;98357.50;;;6.21;100.00
28448;BME280;15675;52.870;-1.416;2024-03-02T10:13:09;98368.59;;;6.28;100.00
28448;BME280;15675;52.870;-1.416;2024-03-02T10:15:38;98369.78;;;6.58;100.00
28448;BME280;15675;52.870;-1.416;2024-03-02T10:18:09;98362.13;;;6.53;100.00
28448;BME280;15675;52.870;-1.416;2024-03-02T10:20:36;98364.38;;;6.73;100.00
28448;BME280;15675;52.870;-1.416;2024-03-02T10:23:13;98363.16;;;6.45;100.00
28448;BME280;15675;52.870;-1.416;2024-03-02T10:25:39;98349.44;;;6.41;100.00
28448;BME280;15675;52.870;-1.416;2024-03-02T10:28:05;98344.88;;;6.59;100.00
28448;BME280;15675;52.870;-1.416;2024-03-02T10:30:31;98354.91;;;6.72;100.00
28448;BME280;15675;52.870;-1.416;2024-03-02T10:32:57;98360.31;;;7.07;100.00
28448;BME280;15675;52.870;-1.416;2024-03-02T10:35:23;98360.19;;;7.13;100.00
28448;BME280;15675;52.870;-1.416;2024-03-02T10:37:49;98366.28;;;7.09;100.00
28448;BME280;15675;52.870;-1.416;2024-03-02T10:40:16;98366.13;;;7.18;100.00
28448;BME280;15675;52.870;-1.416;2024-03-02T10:42:42;98360.13;;;7.16;100.00
28448;BME280;15675;52.870;-1.416;2024-03-02T10:45:09;98362.00;;;7.50;100.00
28448;BME280;15675;52.870;-1.416;2024-03-02T10:47:37;98355.91;;;7.54;100.00
28448;BME280;15675;52.870;-1.416;2024-03-02T10:50:05;98364.28;;;7.66;100.00
28448;BME280;15675;52.870;-1.416;2024-03-02T10:52:37;98357.88;;;7.43;100.00
28448;BME280;15675;52.870;-1.416;2024-03-02T10:55:05;98362.75;;;7.57;100.00
28448;BME280;15675;52.870;-1.416;2024-03-02T10:57:52;98366.88;;;7.22;100.00
28448;BME280;15675;52.870;-1.416;2024-03-02T11:00:19;98370.03;;;7.36;100.00
28448;BME280;15675;52.870;-1.416;2024-03-02T11:02:52;98368.34;;;7.37;100.00
28448;BME280;15675;52.870;-1.416;2024-03-02T11:05:29;98365.72;;;7.38;100.00
28448;BME280;15675;52.870;-1.416;2024-03-02T11:08:07;98374.38;;;7.36;100.00
28448;BME280;15675;52.870;-1.416;2024-03-02T11:10:35;98367.19;;;7.50;100.00
28448;BME280;15675;52.870;-1.416;2024-03-02T11:13:05;98367.09;;;7.94;100.00
28448;BME280;15675;52.870;-1.416;2024-03-02T11:15:34;98363.97;;;7.78;100.00
28448;BME280;15675;52.870;-1.416;2024-03-02T11:18:01;98368.63;;;8.39;100.00
28448;BME280;15675;52.870;-1.416;2024-03-02T11:20:31;98366.38;;;8.61;100.00
28448;BME280;15675;52.870;-1.416;2024-03-02T11:22:57;98365.34;;;8.30;100.00
28448;BME280;15675;52.870;-1.416;2024-03-02T11:25:24;98367.59;;;8.10;100.00
28448;BME280;15675;52.870;-1.416;2024-03-02T11:35:25;98372.47;;;8.21;100.00
28448;BME280;15675;52.870;-1.416;2024-03-02T11:37:52;98373.13;;;8.67;100.00
28448;BME280;15675;52.870;-1.416;2024-03-02T11:40:25;98374.28;;;8.55;100.00
28448;BME280;15675;52.870;-1.416;2024-03-02T11:42:50;98374.84;;;8.66;100.00
28448;BME280;15675;52.870;-1.416;2024-03-02T11:45:17;98370.59;;;8.65;100.00
28448;BME280;15675;52.870;-1.416;2024-03-02T11:47:58;98360.38;;;8.59;100.00
28448;BME280;15675;52.870;-1.416;2024-03-02T11:50:34;98366.28;;;8.29;100.00
28448;BME280;15675;52.870;-1.416;2024-03-02T11:53:01;98369.28;;;8.49;100.00
28448;BME280;15675;52.870;-1.416;2024-03-02T11:55:28;98365.09;;;8.77;100.00
28448;BME280;15675;52.870;-1.416;2024-03-02T11:57:55;98364.94;;;8.49;99.03
28448;BME280;15675;52.870;-1.416;2024-03-02T12:00:21;98366.97;;;8.72;99.96
28448;BME280;15675;52.870;-1.416;2024-03-02T12:02:47;98362.75;;;8.68;98.86
28448;BME280;15675;52.870;-1.416;2024-03-02T12:05:24;98361.47;;;8.83;96.83
28448;BME280;15675;52.870;-1.416;2024-03-02T12:07:58;98368.22;;;8.56;96.77
28448;BME280;15675;52.870;-1.416;2024-03-02T12:10:24;98367.34;;;8.57;96.11
28448;BME280;15675;52.870;-1.416;2024-03-02T12:15:30;98365.47;;;7.90;92.36
28448;BME280;15675;52.870;-1.416;2024-03-02T12:17:59;98373.91;;;7.97;91.64
28448;BME280;15675;52.870;-1.416;2024-03-02T12:20:27;98374.66;;;8.02;90.36
28448;BME280;15675;52.870;-1.416;2024-03-02T12:22:55;98377.44;;;7.94;90.26
28448;BME280;15675;52.870;-1.416;2024-03-02T12:25:23;98368.91;;;8.28;90.88
28448;BME280;15675;52.870;-1.416;2024-03-02T12:27:51;98372.94;;;8.01;90.97
28448;BME280;15675;52.870;-1.416;2024-03-02T12:30:19;98367.16;;;8.28;91.14
28448;BME280;15675;52.870;-1.416;2024-03-02T12:32:45;98378.03;;;8.41;91.55
28448;BME280;15675;52.870;-1.416;2024-03-02T12:35:11;98370.16;;;8.48;91.41
28448;BME280;15675;52.870;-1.416;2024-03-02T12:37:51;98367.44;;;8.16;89.73
28448;BME280;15675;52.870;-1.416;2024-03-02T12:40:18;98365.22;;;8.37;87.12
28448;BME280;15675;52.870;-1.416;2024-03-02T12:42:45;98366.34;;;8.62;86.34
28448;BME280;15675;52.870;-1.416;2024-03-02T12:45:12;98366.84;;;8.77;85.42
28448;BME280;15675;52.870;-1.416;2024-03-02T12:47:39;98359.78;;;8.84;83.16
28448;BME280;15675;52.870;-1.416;2024-03-02T12:50:06;98357.59;;;9.00;82.13
28448;BME280;15675;52.870;-1.416;2024-03-02T12:52:32;98373.94;;;8.69;86.37
28448;BME280;15675;52.870;-1.416;2024-03-02T12:55:04;98379.00;;;9.05;89.41
28448;BME280;15675;52.870;-1.416;2024-03-02T12:57:31;98377.84;;;8.85;90.87
28448;BME280;15675;52.870;-1.416;2024-03-02T13:00:02;98373.28;;;8.60;91.29